Time;durP1;ratioP1;P1;durP2;ratioP2;P2;SDS_P1;SDS_P2;PMS_P1;PMS_P2;Temp;Humidity;BMP_temperature;BMP_pressure;BME280_temperature;BME280_humidity;BME280_pressure;Samples;Min_cycle;Max_cycle;Signal;HPM_P1;HPM_P2
2021/09/05 00:01:37;;;;;;;10.68;7.22;;;;;;;23.20;41.07;101461.31;5013472;28;20137;-84
2021/09/05 00:04:04;;;;;;;12.98;8.23;;;;;;;23.20;41.22;101464.97;5008233;28;20084;-85
2021/09/05 00:06:31;;;;;;;11.20;7.97;;;;;;;23.19;41.40;101463.22;5008769;28;20083;-85
2021/09/05 00:08:57;;;;;;;13.32;8.45;;;;;;;23.20;41.31;101462.19;5007955;28;20058;-84
2021/09/05 00:11:24;;;;;;;11.35;7.63;;;;;;;23.20;40.77;101461.31;5010455;28;20073;-84
2021/09/05 00:13:51;;;;;;;11.88;7.80;;;;;;;23.20;41.39;101461.31;5009437;28;20061;-85
2021/09/05 00:16:18;;;;;;;10.45;7.40;;;;;;;23.20;40.79;101462.19;5009504;28;20081;-84
2021/09/05 00:18:46;;;;;;;11.63;7.68;;;;;;;23.21;40.97;101471.38;5007062;28;20100;-85
2021/09/05 00:21:13;;;;;;;11.77;7.88;;;;;;;23.21;41.36;101468.59;5009343;28;20493;-85
2021/09/05 00:23:39;;;;;;;13.23;8.40;;;;;;;23.21;40.79;101468.59;5009492;28;20453;-85
2021/09/05 00:26:07;;;;;;;12.32;8.27;;;;;;;23.19;40.95;101470.66;5009290;28;20112;-85
2021/09/05 00:28:34;;;;;;;10.57;7.70;;;;;;;23.19;40.78;101468.75;5019177;28;20054;-84
2021/09/05 00:31:01;;;;;;;12.25;8.13;;;;;;;23.18;40.98;101471.69;5029491;28;20100;-84
2021/09/05 00:33:28;;;;;;;13.75;8.38;;;;;;;23.13;40.95;101469.44;5027750;28;20433;-85
2021/09/05 00:35:55;;;;;;;12.75;8.38;;;;;;;23.10;41.06;101467.00;5013556;28;20383;-84
2021/09/05 00:38:22;;;;;;;14.10;8.70;;;;;;;23.05;40.97;101470.28;5007495;28;20140;-84
2021/09/05 00:40:48;;;;;;;13.13;8.43;;;;;;;22.99;41.20;101468.16;5009965;28;20053;-84
2021/09/05 00:43:17;;;;;;;12.80;8.13;;;;;;;22.95;41.25;101477.88;5006710;28;20136;-84
2021/09/05 00:45:44;;;;;;;12.30;8.40;;;;;;;22.87;41.55;101468.66;5019888;28;20049;-84
2021/09/05 00:48:10;;;;;;;13.18;8.05;;;;;;;22.80;41.50;101462.94;5007873;28;20054;-84
2021/09/05 00:50:38;;;;;;;12.18;8.15;;;;;;;22.74;41.54;101467.22;5011669;28;20481;-81
2021/09/05 00:53:05;;;;;;;15.27;8.82;;;;;;;22.67;41.72;101466.13;5028570;28;20058;-84
2021/09/05 00:55:36;;;;;;;11.55;7.68;;;;;;;22.64;41.92;101462.84;5012688;28;20053;-83
2021/09/05 00:58:06;;;;;;;12.48;8.52;;;;;;;22.60;41.67;101465.06;5011855;28;20086;-84
2021/09/05 01:00:35;;;;;;;11.68;7.38;;;;;;;22.56;42.11;101468.31;5005152;28;20129;-84
2021/09/05 01:03:03;;;;;;;12.90;8.32;;;;;;;22.53;42.33;101465.88;5011639;28;20050;-83
2021/09/05 01:05:31;;;;;;;13.07;8.30;;;;;;;22.48;42.40;101471.06;5011830;28;20555;-84
2021/09/05 01:07:58;;;;;;;12.80;8.32;;;;;;;22.44;42.44;101476.03;5010438;28;20111;-83
2021/09/05 01:10:24;;;;;;;13.40;8.70;;;;;;;22.39;42.41;101472.91;5013389;28;20077;-83
2021/09/05 01:12:51;;;;;;;12.43;8.55;;;;;;;22.35;42.62;101471.47;5012370;28;20141;-84
2021/09/05 01:15:19;;;;;;;13.02;8.43;;;;;;;22.31;42.32;101472.84;5001763;28;20077;-83
2021/09/05 01:17:45;;;;;;;14.30;8.93;;;;;;;22.27;42.62;101475.06;5009978;28;20136;-84
2021/09/05 01:20:12;;;;;;;13.40;8.35;;;;;;;22.24;42.46;101474.50;5012813;28;20673;-83
2021/09/05 01:22:38;;;;;;;14.40;8.73;;;;;;;22.20;42.44;101474.00;5011497;28;20053;-84
2021/09/05 01:25:05;;;;;;;12.60;8.13;;;;;;;22.19;42.78;101463.94;5011313;28;20042;-84
2021/09/05 01:27:33;;;;;;;12.32;7.75;;;;;;;22.16;42.69;101458.72;5028888;28;20531;-83
2021/09/05 01:29:59;;;;;;;11.48;7.93;;;;;;;22.17;42.79;101465.13;5030568;28;20094;-84
2021/09/05 01:32:26;;;;;;;11.95;7.60;;;;;;;22.16;43.00;101472.56;4991064;28;20082;-84
2021/09/05 01:34:53;;;;;;;11.32;7.43;;;;;;;22.16;42.61;101469.78;5010429;28;20057;-83
2021/09/05 01:37:19;;;;;;;10.80;7.20;;;;;;;22.18;42.83;101473.28;5010256;28;20046;-84
2021/09/05 01:39:46;;;;;;;10.65;7.15;;;;;;;22.19;42.91;101472.25;5011705;28;20046;-84
2021/09/05 01:42:12;;;;;;;11.93;7.60;;;;;;;22.20;42.55;101476.75;5030030;28;20042;-83
2021/09/05 01:44:39;;;;;;;12.85;8.20;;;;;;;22.22;42.68;101469.16;5013942;28;20136;-84
2021/09/05 01:47:06;;;;;;;12.88;7.80;;;;;;;22.24;42.88;101469.84;5012411;28;20128;-84
2021/09/05 01:49:32;;;;;;;11.50;8.07;;;;;;;22.23;42.73;101470.91;5009554;28;20596;-83
2021/09/05 01:51:59;;;;;;;11.93;8.18;;;;;;;22.23;42.27;101473.69;5012566;28;20080;-83
2021/09/05 01:54:25;;;;;;;12.20;7.60;;;;;;;22.23;42.82;101472.81;5013105;28;20080;-83
2021/09/05 01:56:52;;;;;;;14.02;7.47;;;;;;;22.23;42.45;101475.56;5013694;28;20108;-83
2021/09/05 01:59:19;;;;;;;12.70;8.10;;;;;;;22.23;42.57;101473.69;5030722;28;20072;-83
2021/09/05 02:01:45;;;;;;;12.02;7.53;;;;;;;22.24;42.70;101474.50;5012900;28;20157;-83
2021/09/05 02:04:12;;;;;;;10.95;7.03;;;;;;;22.25;42.72;101481.78;5023407;28;20056;-83
2021/09/05 02:06:39;;;;;;;11.80;7.22;;;;;;;22.25;42.59;101477.13;5013346;28;20133;-83
2021/09/05 02:09:05;;;;;;;12.07;7.70;;;;;;;22.27;42.87;101474.19;5012937;28;20120;-83
2021/09/05 02:11:32;;;;;;;11.85;7.90;;;;;;;22.27;42.65;101477.84;5020264;28;20168;-83
2021/09/05 02:13:58;;;;;;;10.70;7.47;;;;;;;22.28;42.49;101475.94;5021516;28;20057;-82
2021/09/05 02:16:25;;;;;;;14.25;8.32;;;;;;;22.28;42.15;101484.25;5013768;28;20457;-82
2021/09/05 02:18:52;;;;;;;13.68;8.23;;;;;;;22.28;42.20;101481.47;5012289;28;20057;-83
2021/09/05 02:21:18;;;;;;;13.55;9.02;;;;;;;22.25;42.84;101485.44;5028512;28;20145;-83
2021/09/05 02:23:45;;;;;;;13.35;8.45;;;;;;;22.25;42.44;101487.31;5020440;28;20081;-83
2021/09/05 02:26:11;;;;;;;11.95;8.20;;;;;;;22.21;42.36;101489.56;5020018;28;20141;-83
2021/09/05 02:28:38;;;;;;;14.73;8.38;;;;;;;22.19;42.33;101486.09;5025120;28;20287;-83
2021/09/05 02:31:04;;;;;;;11.60;7.80;;;;;;;22.17;42.37;101488.13;5013504;28;20085;-83
2021/09/05 02:33:31;;;;;;;10.73;7.25;;;;;;;22.16;42.13;101493.81;5020888;28;20045;-83
2021/09/05 02:35:58;;;;;;;11.50;7.15;;;;;;;22.15;42.34;101493.00;5020354;28;20112;-83
2021/09/05 02:38:25;;;;;;;12.68;7.90;;;;;;;22.14;42.71;101496.78;5016029;28;20057;-83
2021/09/05 02:40:52;;;;;;;11.75;7.35;;;;;;;22.14;42.58;101495.91;5012888;28;20081;-83
2021/09/05 02:43:18;;;;;;;11.90;7.70;;;;;;;22.13;42.58;101496.94;5019049;28;20678;-83
2021/09/05 02:45:45;;;;;;;12.60;8.35;;;;;;;22.11;42.70;101499.84;5020210;28;20100;-83
2021/09/05 02:48:12;;;;;;;13.80;8.43;;;;;;;22.09;42.72;101501.91;5016277;28;20111;-83
2021/09/05 02:50:38;;;;;;;13.02;8.82;;;;;;;22.06;42.61;101499.47;5033762;28;20058;-83
2021/09/05 02:53:05;;;;;;;13.25;7.75;;;;;;;22.01;42.44;101497.19;5030945;28;20080;-83
2021/09/05 02:55:32;;;;;;;12.32;8.15;;;;;;;22.01;42.54;101505.47;5018125;28;20084;-83
2021/09/05 02:57:58;;;;;;;11.88;7.95;;;;;;;21.99;42.70;101496.47;5016491;28;20066;-83
2021/09/05 03:00:25;;;;;;;12.93;8.63;;;;;;;21.98;42.84;101497.53;5022702;28;20049;-83
2021/09/05 03:02:52;;;;;;;13.85;8.65;;;;;;;21.98;42.55;101496.66;5025091;28;20052;-83
2021/09/05 03:05:19;;;;;;;13.75;8.27;;;;;;;21.97;42.93;101497.69;5021747;28;20390;-83
2021/09/05 03:07:46;;;;;;;12.90;8.05;;;;;;;21.94;42.72;101492.44;5018345;28;20058;-83
2021/09/05 03:10:13;;;;;;;12.88;8.45;;;;;;;21.94;42.79;101493.28;5025537;28;20132;-83
2021/09/05 03:12:39;;;;;;;11.45;8.00;;;;;;;21.93;42.54;101491.56;5011534;28;20057;-83
2021/09/05 03:15:06;;;;;;;12.70;7.75;;;;;;;21.93;42.50;101490.69;5035718;28;20050;-82
2021/09/05 03:17:34;;;;;;;11.48;8.10;;;;;;;21.91;42.40;101490.84;5024577;28;20504;-83
2021/09/05 03:20:01;;;;;;;14.55;8.60;;;;;;;21.90;42.68;101496.56;5012572;28;20100;-82
2021/09/05 03:22:28;;;;;;;12.57;8.60;;;;;;;21.88;42.59;101498.59;5012525;28;20052;-83
2021/09/05 03:24:54;;;;;;;12.88;8.50;;;;;;;21.85;42.73;101498.91;5018258;28;20146;-83
2021/09/05 03:27:21;;;;;;;12.55;8.05;;;;;;;21.83;42.87;101496.31;5019626;28;20439;-83
2021/09/05 03:29:48;;;;;;;12.27;7.55;;;;;;;21.82;42.80;101497.38;5016611;28;20144;-83
2021/09/05 03:32:15;;;;;;;12.50;8.43;;;;;;;21.80;42.99;101493.88;5020534;28;20444;-82
2021/09/05 03:34:41;;;;;;;12.32;8.32;;;;;;;21.79;43.18;101494.03;5020090;28;20136;-82
2021/09/05 03:37:08;;;;;;;13.35;8.32;;;;;;;21.78;43.20;101492.28;5011421;28;20479;-82
2021/09/05 03:39:34;;;;;;;14.32;9.00;;;;;;;21.74;42.85;101504.72;5028287;28;20050;-82
2021/09/05 03:42:01;;;;;;;14.23;8.82;;;;;;;21.71;42.84;101503.13;5025724;28;20061;-82
2021/09/05 03:44:28;;;;;;;13.50;8.10;;;;;;;21.68;42.91;101497.91;5025403;28;20081;-82
2021/09/05 03:46:54;;;;;;;13.20;8.18;;;;;;;21.64;42.95;101505.66;5025852;28;20064;-82
2021/09/05 03:49:21;;;;;;;14.57;8.30;;;;;;;21.61;43.40;101505.09;5023112;28;20136;-81
2021/09/05 03:51:47;;;;;;;11.77;8.23;;;;;;;21.59;43.03;101507.13;5019411;28;20077;-82
2021/09/05 03:54:14;;;;;;;11.93;8.20;;;;;;;21.56;43.36;101511.13;5021333;28;20095;-82
2021/09/05 03:56:41;;;;;;;12.65;8.23;;;;;;;21.54;43.46;101506.75;5025575;28;20501;-82
2021/09/05 03:59:08;;;;;;;12.43;8.45;;;;;;;21.52;43.18;101514.34;5018974;28;20081;-82
2021/09/05 04:01:35;;;;;;;11.95;7.38;;;;;;;21.50;43.47;101506.19;5016862;28;20132;-82
2021/09/05 04:04:02;;;;;;;12.25;7.50;;;;;;;21.51;43.25;101507.06;5019999;28;20072;-82
2021/09/05 04:06:29;;;;;;;13.02;8.05;;;;;;;21.50;43.04;101508.94;5025855;28;20103;-82
2021/09/05 04:08:56;;;;;;;10.15;7.15;;;;;;;21.53;43.24;101510.53;5012112;28;20057;-82
2021/09/05 04:11:23;;;;;;;10.30;7.30;;;;;;;21.53;43.46;101514.19;5026430;28;20077;-82
2021/09/05 04:13:49;;;;;;;12.38;7.65;;;;;;;21.53;43.07;101513.31;5011945;28;20081;-82
2021/09/05 04:16:16;;;;;;;12.52;8.07;;;;;;;21.55;43.20;101514.03;5010266;28;20077;-82
2021/09/05 04:18:43;;;;;;;12.40;7.60;;;;;;;21.54;43.05;101512.28;5018928;28;20459;-82
2021/09/05 04:21:09;;;;;;;13.63;8.57;;;;;;;21.54;43.43;101513.16;5021751;28;20069;-82
2021/09/05 04:23:36;;;;;;;13.52;8.68;;;;;;;21.53;43.32;101510.53;5023226;28;20937;-82
2021/09/05 04:26:02;;;;;;;13.40;9.20;;;;;;;21.52;43.51;101512.44;5011345;28;20085;-82
2021/09/05 04:28:29;;;;;;;12.48;8.35;;;;;;;21.51;43.13;101509.81;5012334;28;20468;-82
2021/09/05 04:30:55;;;;;;;13.93;8.65;;;;;;;21.49;43.10;101506.38;5008874;28;20088;-82
2021/09/05 04:33:22;;;;;;;13.50;8.80;;;;;;;21.47;43.27;101509.28;5015672;28;20417;-82
2021/09/05 04:35:49;;;;;;;12.68;7.93;;;;;;;21.46;43.30;101514.97;5020691;28;20383;-82
2021/09/05 04:38:15;;;;;;;11.05;7.22;;;;;;;21.44;43.30;101508.72;5023618;28;20142;-82
2021/09/05 04:40:42;;;;;;;13.32;8.57;;;;;;;21.43;43.29;101513.38;5022616;28;20084;-82
2021/09/05 04:43:09;;;;;;;12.82;8.40;;;;;;;21.43;43.63;101513.38;5024491;28;20115;-82
2021/09/05 04:45:35;;;;;;;12.60;7.63;;;;;;;21.44;43.12;101519.78;5047449;28;20046;-82
2021/09/05 04:48:02;;;;;;;12.85;7.80;;;;;;;21.44;43.12;101523.41;5014008;28;20129;-82
2021/09/05 04:50:28;;;;;;;12.13;7.57;;;;;;;21.43;43.39;101524.44;5012376;28;20049;-82
2021/09/05 04:52:55;;;;;;;11.85;7.57;;;;;;;21.42;43.31;101525.44;5023751;28;20138;-82
2021/09/05 04:55:21;;;;;;;11.15;7.57;;;;;;;21.44;43.41;101533.59;5023180;28;20129;-82
2021/09/05 04:57:48;;;;;;;11.40;7.43;;;;;;;21.42;43.01;101533.75;5022933;28;20084;-82
2021/09/05 05:00:15;;;;;;;11.50;8.05;;;;;;;21.42;43.37;101547.56;5039907;28;20489;-82
2021/09/05 05:02:42;;;;;;;11.85;8.15;;;;;;;21.40;42.94;101546.00;5022677;28;20779;-82
2021/09/05 05:05:09;;;;;;;10.95;7.57;;;;;;;21.41;43.12;101544.97;5026618;28;20402;-82
2021/09/05 05:07:36;;;;;;;10.98;7.03;;;;;;;21.39;43.45;101547.88;5020094;28;20084;-82
2021/09/05 05:10:03;;;;;;;11.73;7.63;;;;;;;21.40;43.01;101544.09;5013764;28;20050;-82
2021/09/05 05:12:29;;;;;;;13.20;7.47;;;;;;;21.38;43.07;101546.13;5019745;28;20053;-82
2021/09/05 05:14:56;;;;;;;12.98;8.05;;;;;;;21.38;43.71;101546.13;5015803;28;20576;-82
2021/09/05 05:17:33;;;;;;;13.40;8.05;;;;;;;21.41;43.78;101553.25;5009036;28;20133;-81
2021/09/05 05:19:59;;;;;;;11.80;7.18;;;;;;;21.35;43.21;101551.97;5011076;28;20080;-82
2021/09/05 05:22:26;;;;;;;12.45;7.63;;;;;;;21.35;43.69;101556.63;5035610;28;20045;-83
2021/09/05 05:24:53;;;;;;;11.00;7.22;;;;;;;21.33;43.56;101550.41;5030437;28;20091;-82
2021/09/05 05:27:19;;;;;;;10.70;7.40;;;;;;;21.32;43.45;101559.72;5028246;28;20132;-82
2021/09/05 05:29:46;;;;;;;11.88;7.63;;;;;;;21.32;43.26;101555.06;5005035;28;20084;-82
2021/09/05 05:32:12;;;;;;;11.68;7.85;;;;;;;21.32;43.32;101559.72;5024678;28;20089;-82
2021/09/05 05:34:40;;;;;;;12.43;8.18;;;;;;;21.32;43.69;101566.09;5011236;28;20128;-82
2021/09/05 05:37:06;;;;;;;10.80;7.10;;;;;;;21.31;43.50;101558.84;5012124;28;20486;-83
2021/09/05 05:39:33;;;;;;;10.57;7.15;;;;;;;21.31;43.38;101561.59;5014475;28;20053;-82
2021/09/05 05:42:00;;;;;;;11.40;7.68;;;;;;;21.31;43.88;101561.59;5021229;28;20053;-82
2021/09/05 05:44:26;;;;;;;11.05;7.25;;;;;;;21.32;43.69;101557.81;5049303;28;20081;-83
2021/09/05 05:46:53;;;;;;;11.35;7.20;;;;;;;21.33;43.94;101556.75;5013984;28;20489;-82
2021/09/05 05:49:19;;;;;;;11.07;6.90;;;;;;;21.34;43.68;101554.88;5012738;28;20129;-82
2021/09/05 05:51:47;;;;;;;10.85;7.65;;;;;;;21.37;43.46;101557.34;5014726;28;20073;-82
2021/09/05 05:54:15;;;;;;;11.45;7.05;;;;;;;21.36;43.61;101562.00;5011628;28;20472;-82
2021/09/05 05:56:43;;;;;;;10.50;6.93;;;;;;;21.38;43.52;101559.09;5014153;28;20085;-82
2021/09/05 05:59:10;;;;;;;10.73;7.32;;;;;;;21.39;43.65;101567.22;5022287;28;20523;-82
2021/09/05 06:01:41;;;;;;;10.93;7.05;;;;;;;21.40;43.82;101559.81;5019559;28;20132;-82
2021/09/05 06:04:08;;;;;;;11.25;7.13;;;;;;;;;;5018455;28;20049;-83
2021/09/05 06:06:35;;;;;;;11.13;7.05;;;;;;;21.43;43.74;101562.25;5013422;28;20053;-84
2021/09/05 06:09:02;;;;;;;10.50;7.07;;;;;;;21.43;44.06;101557.59;5011066;28;20053;-84
2021/09/05 06:11:28;;;;;;;10.35;6.82;;;;;;;21.46;44.03;101564.69;5011290;28;20053;-84
2021/09/05 06:13:55;;;;;;;12.15;6.78;;;;;;;21.46;43.99;101562.81;5011221;28;20053;-86
2021/09/05 06:16:21;;;;;;;10.63;7.18;;;;;;;21.48;44.22;101551.59;5012574;28;20100;-84
2021/09/05 06:18:48;;;;;;;11.30;6.90;;;;;;;21.49;43.77;101565.28;5011131;28;20065;-85
2021/09/05 06:21:15;;;;;;;9.30;6.53;;;;;;;21.51;44.03;101563.19;5001339;28;20490;-85
2021/09/05 06:23:41;;;;;;;12.07;7.63;;;;;;;21.53;43.65;101558.38;5041693;28;20128;-84
2021/09/05 06:26:08;;;;;;;11.93;7.72;;;;;;;21.55;44.39;101564.63;5022261;28;20088;-85
2021/09/05 06:28:34;;;;;;;10.65;7.05;;;;;;;21.57;44.33;101564.50;5014290;28;20140;-84
2021/09/05 06:31:01;;;;;;;11.30;7.63;;;;;;;21.58;44.12;101560.66;5020614;28;20045;-82
2021/09/05 06:33:28;;;;;;;11.27;7.63;;;;;;;21.58;44.26;101561.53;5024693;28;20066;-85
2021/09/05 06:35:55;;;;;;;11.13;6.78;;;;;;;21.59;44.30;101566.03;5006986;28;20081;-83
2021/09/05 06:38:21;;;;;;;11.75;7.60;;;;;;;21.61;44.29;101572.28;5014702;28;20103;-83
2021/09/05 06:40:48;;;;;;;10.60;6.80;;;;;;;21.63;44.29;101569.38;5020314;28;20130;-82
2021/09/05 06:43:16;;;;;;;10.98;7.22;;;;;;;21.66;44.70;101574.56;5014681;28;20453;-83
2021/09/05 06:45:43;;;;;;;11.48;6.85;;;;;;;21.69;44.21;101578.94;5015398;28;20123;-82
2021/09/05 06:48:09;;;;;;;11.25;7.00;;;;;;;21.71;44.74;101576.88;5011346;28;20537;-81
2021/09/05 06:50:36;;;;;;;14.02;7.35;;;;;;;21.76;44.48;101580.03;5016671;28;20046;-84
2021/09/05 06:53:03;;;;;;;11.93;7.85;;;;;;;21.78;44.69;101573.31;5029101;28;20131;-85
2021/09/05 06:55:29;;;;;;;9.68;6.93;;;;;;;21.82;44.78;101576.66;5014771;28;20085;-86
2021/09/05 06:57:56;;;;;;;12.85;7.88;;;;;;;21.88;45.37;101576.03;5015844;28;20591;-86
2021/09/05 07:00:22;;;;;;;11.52;7.75;;;;;;;21.95;45.88;101579.88;5016560;28;20681;-87
2021/09/05 07:02:49;;;;;;;11.77;7.35;;;;;;;22.08;45.78;101585.03;5028717;28;20564;-85
2021/09/05 07:05:16;;;;;;;11.82;7.80;;;;;;;22.19;46.39;101585.66;5017076;28;20685;-87
2021/09/05 07:07:43;;;;;;;10.82;7.40;;;;;;;22.32;46.33;101588.88;5027953;28;20060;-84
2021/09/05 07:10:10;;;;;;;13.65;8.40;;;;;;;22.46;46.54;101584.66;5030707;28;20050;-86
2021/09/05 07:12:39;;;;;;;10.75;7.22;;;;;;;22.62;46.58;101587.56;5014788;28;20368;-87
2021/09/05 07:15:06;;;;;;;11.45;7.55;;;;;;;22.79;46.28;101591.31;5017279;28;20412;-87
2021/09/05 07:17:33;;;;;;;10.40;7.43;;;;;;;22.95;46.36;101590.53;5021350;28;20525;-86
2021/09/05 07:20:00;;;;;;;10.57;7.43;;;;;;;23.12;46.40;101592.38;5022802;28;20105;-86
2021/09/05 07:22:27;;;;;;;10.13;7.38;;;;;;;23.30;46.27;101593.13;5028547;28;20045;-86
2021/09/05 07:24:54;;;;;;;10.15;7.20;;;;;;;23.49;46.16;101598.41;5016658;28;20132;-87
2021/09/05 07:27:20;;;;;;;11.25;7.38;;;;;;;23.66;45.28;101598.47;5013473;28;20128;-86
2021/09/05 07:29:47;;;;;;;11.60;7.55;;;;;;;23.83;45.27;101601.09;5022469;28;20046;-87
2021/09/05 07:32:14;;;;;;;9.77;6.97;;;;;;;23.99;44.42;101605.81;5018963;28;20119;-86
2021/09/05 07:34:40;;;;;;;11.23;7.50;;;;;;;24.14;44.71;101604.06;5029588;28;20065;-88
2021/09/05 07:37:08;;;;;;;10.43;7.50;;;;;;;24.29;44.01;101600.66;5013139;28;20073;-88
2021/09/05 07:39:35;;;;;;;9.68;7.55;;;;;;;24.41;44.14;101600.13;5029348;28;20064;-86
2021/09/05 07:42:02;;;;;;;10.57;7.35;;;;;;;24.53;43.97;101600.66;5010501;28;20054;-87
2021/09/05 07:44:28;;;;;;;10.82;7.60;;;;;;;24.63;43.55;101609.66;5026978;28;20045;-86
2021/09/05 07:46:55;;;;;;;10.73;7.93;;;;;;;24.72;42.78;101605.81;5015497;28;20141;-88
2021/09/05 07:49:22;;;;;;;11.90;8.07;;;;;;;24.80;42.59;101608.56;5018929;28;20077;-86
2021/09/05 07:51:48;;;;;;;11.10;8.13;;;;;;;24.86;42.65;101602.34;5024859;28;20401;-71
2021/09/05 07:54:15;;;;;;;11.15;7.95;;;;;;;24.91;42.59;101604.59;5007233;28;20077;-70
2021/09/05 07:56:41;;;;;;;10.90;7.38;;;;;;;24.95;42.60;101608.78;5008651;28;20317;-71
2021/09/05 07:59:08;;;;;;;10.35;7.63;;;;;;;24.99;42.15;101613.78;5018387;28;20069;-70
2021/09/05 08:01:38;;;;;;;11.45;7.47;;;;;;;25.04;42.09;101616.00;5015243;28;20081;-70
2021/09/05 08:04:08;;;;;;;11.57;7.90;;;;;;;25.05;41.99;101614.09;5007248;28;20053;-70
2021/09/05 08:06:34;;;;;;;10.02;7.05;;;;;;;25.07;41.67;101612.88;5004509;28;20043;-70
2021/09/05 08:09:01;;;;;;;9.95;7.15;;;;;;;25.10;41.83;101620.00;5007786;28;20082;-67
2021/09/05 08:11:28;;;;;;;9.98;7.15;;;;;;;25.11;41.86;101628.16;5007314;28;20050;-68
2021/09/05 08:13:54;;;;;;;10.35;7.32;;;;;;;25.14;42.05;101626.91;5007970;28;20046;-71
2021/09/05 08:16:21;;;;;;;10.60;6.82;;;;;;;25.16;41.46;101627.63;5007623;28;20077;-71
2021/09/05 08:19:13;;;;;;;10.70;7.30;;;;;;;25.18;41.18;101628.31;4997306;28;20056;-70
2021/09/05 08:21:39;;;;;;;10.68;7.30;;;;;;;25.17;41.73;101624.66;5027585;28;20140;-70
2021/09/05 08:24:06;;;;;;;11.25;7.68;;;;;;;25.18;41.48;101620.84;5010868;28;20053;-70
2021/09/05 08:26:34;;;;;;;10.07;7.25;;;;;;;25.23;41.59;101631.41;5008088;28;20089;-70
2021/09/05 08:29:00;;;;;;;11.45;6.32;;;;;;;25.24;41.90;101636.81;5017071;28;20053;-71
2021/09/05 08:31:27;;;;;;;10.82;7.53;;;;;;;25.26;41.61;101631.94;5006533;28;20107;-69
2021/09/05 08:33:54;;;;;;;9.95;7.53;;;;;;;25.29;41.73;101630.69;5006613;28;20058;-71
2021/09/05 08:36:20;;;;;;;11.57;7.35;;;;;;;25.32;41.40;101639.56;5007793;28;20079;-67
2021/09/05 08:38:47;;;;;;;8.65;5.97;;;;;;;25.35;41.25;101641.97;5006897;28;20089;-68
2021/09/05 08:41:14;;;;;;;10.27;7.05;;;;;;;25.38;41.35;101643.50;5007390;28;20096;-68
2021/09/05 08:43:40;;;;;;;10.02;7.25;;;;;;;25.42;41.21;101646.81;5009704;28;20085;-69
2021/09/05 08:46:08;;;;;;;10.02;7.05;;;;;;;25.45;41.56;101658.41;5027890;28;20041;-71
2021/09/05 08:48:35;;;;;;;9.23;6.60;;;;;;;25.50;41.24;101656.00;5013264;28;20057;-68
2021/09/05 08:51:02;;;;;;;8.88;6.40;;;;;;;25.53;41.26;101650.03;5015506;28;20341;-68
2021/09/05 08:53:30;;;;;;;9.75;7.10;;;;;;;25.60;41.36;101658.59;5010522;28;20128;-69
2021/09/05 08:55:57;;;;;;;10.30;6.93;;;;;;;25.63;41.33;101647.94;5025059;28;20053;-68
2021/09/05 08:58:24;;;;;;;11.00;6.78;;;;;;;25.70;41.13;101660.06;5023912;28;20057;-85
2021/09/05 09:00:50;;;;;;;10.38;7.30;;;;;;;25.75;41.22;101649.28;5031474;28;20042;-87
2021/09/05 09:03:22;;;;;;;11.18;7.70;;;;;;;25.82;40.86;101655.00;5018169;28;20049;-89
2021/09/05 09:05:54;;;;;;;11.85;7.60;;;;;;;25.89;40.79;101653.19;5023360;28;20494;-87
2021/09/05 09:08:22;;;;;;;10.77;7.40;;;;;;;25.90;41.20;101663.28;5024592;28;20049;-88
2021/09/05 09:10:51;;;;;;;10.73;6.80;;;;;;;25.99;41.34;101666.88;5014547;28;20042;-91
2021/09/05 09:13:28;;;;;;;9.63;7.10;;;;;;;26.07;40.89;101667.69;5020784;28;20046;-91
2021/09/05 09:16:14;;;;;;;10.77;7.18;;;;;;;26.12;40.75;101672.69;5015514;28;20115;-90
2021/09/05 09:18:43;;;;;;;10.05;7.10;;;;;;;26.20;40.98;101674.56;5021044;28;20050;-88
2021/09/05 09:21:12;;;;;;;10.07;7.10;;;;;;;26.29;41.10;101674.34;5015052;28;20049;-90
2021/09/05 09:23:39;;;;;;;10.50;6.57;;;;;;;26.36;41.46;101669.78;5020407;28;20074;-92
2021/09/05 09:26:14;;;;;;;9.68;7.03;;;;;;;26.48;40.23;101665.50;5012844;28;20096;-88
2021/09/05 09:28:44;;;;;;;10.10;7.53;;;;;;;26.56;40.79;101666.50;5022971;28;20080;-87
2021/09/05 09:31:27;;;;;;;10.65;7.13;;;;;;;26.67;40.07;101666.06;5030657;28;20049;-87
2021/09/05 09:33:57;;;;;;;10.07;6.82;;;;;;;26.73;40.32;101671.75;5014318;28;20049;-88
2021/09/05 09:36:26;;;;;;;8.68;6.68;;;;;;;26.80;40.47;101672.72;5010638;28;20045;-86
2021/09/05 09:38:59;;;;;;;9.70;6.85;;;;;;;26.91;39.82;101671.44;5008524;28;20112;-87
2021/09/05 09:41:32;;;;;;;;;;;;;;;26.68;40.99;101678.94;5020974;28;20072;-87
2021/09/05 09:44:02;;;;;;;9.20;6.38;;;;;;;27.05;40.16;101670.56;5027702;28;19921;-87
2021/09/05 09:46:31;;;;;;;9.10;6.50;;;;;;;27.20;40.35;101674.25;5022735;28;20046;-87
2021/09/05 09:49:06;;;;;;;9.13;6.57;;;;;;;27.33;39.95;101673.59;5010653;28;20081;-86
2021/09/05 09:51:34;;;;;;;10.82;7.45;;;;;;;27.41;39.78;101667.91;5011499;28;20108;-86
2021/09/05 09:54:01;;;;;;;11.85;7.82;;;;;;;27.51;39.44;101670.38;5007298;28;20088;-86
2021/09/05 09:56:28;;;;;;;11.57;7.55;;;;;;;27.60;39.02;101672.91;5018213;28;20050;-86
2021/09/05 09:58:58;;;;;;;9.68;7.13;;;;;;;27.71;38.80;101667.91;5041922;28;20062;-85
2021/09/05 10:01:27;;;;;;;9.43;7.00;;;;;;;27.80;38.81;101663.94;5009763;28;20057;-86
2021/09/05 10:03:56;;;;;;;9.45;6.57;;;;;;;27.87;38.95;101656.50;5010298;28;20053;-85
2021/09/05 10:06:33;;;;;;;9.70;7.13;;;;;;;27.98;38.20;101656.88;5010197;28;20108;-85
2021/09/05 10:09:03;;;;;;;8.73;6.65;;;;;;;28.09;38.65;101663.84;5007327;28;20144;-85
2021/09/05 10:11:31;;;;;;;9.48;6.82;;;;;;;28.17;38.42;101665.69;5011983;28;20113;-85
2021/09/05 10:14:00;;;;;;;8.90;7.13;;;;;;;28.25;37.67;101666.41;5010310;28;20108;-85
2021/09/05 10:16:27;;;;;;;10.43;6.93;;;;;;;28.32;37.62;101663.72;4997302;28;20050;-86
2021/09/05 10:18:59;;;;;;;10.35;7.18;;;;;;;28.41;37.42;101658.88;5009128;28;20089;-85
2021/09/05 10:21:27;;;;;;;9.23;7.43;;;;;;;28.45;37.41;101655.47;5018524;28;20099;-84
2021/09/05 10:23:57;;;;;;;9.10;7.00;;;;;;;28.50;36.53;101666.88;5016962;28;20050;-84
2021/09/05 10:26:25;;;;;;;9.30;6.70;;;;;;;28.54;36.74;101657.06;5012926;28;20065;-85
2021/09/05 10:28:54;;;;;;;9.25;6.82;;;;;;;28.60;36.55;101660.97;5015289;28;20049;-85
2021/09/05 10:31:22;;;;;;;9.85;7.30;;;;;;;28.63;36.34;101655.84;5030649;28;20103;-85
2021/09/05 10:33:48;;;;;;;8.40;6.60;;;;;;;28.66;36.33;101657.38;5017521;28;20053;-85
2021/09/05 10:36:19;;;;;;;10.30;7.63;;;;;;;28.73;36.20;101661.97;5009027;28;20104;-84
2021/09/05 10:38:47;;;;;;;9.10;6.63;;;;;;;28.76;36.52;101650.41;5011131;28;20054;-84
2021/09/05 10:41:24;;;;;;;9.00;6.75;;;;;;;28.84;36.51;101654.09;5010897;28;20104;-84
2021/09/05 10:44:03;;;;;;;9.45;6.82;;;;;;;28.89;36.41;101655.25;5027166;28;20248;-83
2021/09/05 10:46:41;;;;;;;10.07;7.03;;;;;;;28.98;35.88;101654.03;5018223;28;20045;-85
2021/09/05 10:49:10;;;;;;;9.23;6.50;;;;;;;29.02;36.09;101658.13;5030580;28;20148;-68
2021/09/05 10:51:47;;;;;;;9.32;7.18;;;;;;;29.10;35.21;101655.19;5011421;28;20103;-69
2021/09/05 10:54:26;;;;;;;9.23;7.07;;;;;;;29.14;35.01;101656.50;5009396;28;20046;-69
2021/09/05 10:56:55;;;;;;;8.57;6.57;;;;;;;29.18;35.69;101658.88;5009633;28;20050;-68
2021/09/05 10:59:23;;;;;;;8.45;6.25;;;;;;;29.22;35.67;101647.09;5015948;28;20053;-68
2021/09/05 11:01:50;;;;;;;8.32;6.22;;;;;;;29.28;35.69;101642.59;5009280;28;20131;-69
2021/09/05 11:04:22;;;;;;;8.77;6.40;;;;;;;29.37;35.49;101649.78;5010451;28;20137;-69
2021/09/05 11:06:52;;;;;;;9.32;7.15;;;;;;;29.39;35.68;101640.13;5008525;28;20155;-69
2021/09/05 11:09:25;;;;;;;9.27;7.05;;;;;;;29.45;35.69;101635.63;5011137;28;20061;-69
2021/09/05 11:11:55;;;;;;;8.30;6.63;;;;;;;29.56;35.04;101636.97;5008605;28;20128;-68
2021/09/05 11:14:37;;;;;;;8.57;5.82;;;;;;;29.61;35.15;101638.06;5008341;28;20091;-69
2021/09/05 11:17:07;;;;;;;;;;;;;;;29.35;36.03;101632.31;5011319;28;20038;-68
2021/09/05 11:19:57;;;;;;;9.48;6.40;;;;;;;29.70;35.50;101636.81;5007953;28;19931;-68
2021/09/05 11:22:31;;;;;;;8.77;6.60;;;;;;;29.79;35.36;101632.78;5007115;28;20536;-68